Aérodrome :
LOGIN :

S'inscrire | Disclaimer

   EN    FR    IT 

 










Légende :    VFR   VFR Marginal   IFR   IFR Intensif   IFR Très Intensif
Visi : 
Plafond : 
>= 8 km
>= 3000ft
5 à 8 km
1000 à 3000 ft
1500m à 5 km
500 à 1000 ft
800 à 1500m
200 à 500 ft
< 800m
< 200 ft
Symboles :   Orages  Brouillard  Fortes neiges  Fortes précipitations  Vent > 20 kt
SIGMETs :   Divers  Orages  Givrage  Turbulence  Onde Orograph.  Cendres Volcan.







- Altitude de l'aérodrome : 13 ft
- Code IATA : OST


EBOS - Oostend bruges Int.

DERNIER METAR :
  • 270350Z 32006KT CAVOK 12/08 Q1011 NOSIG

METARs EXPIRÉS :
  • 270320Z 32007KT 9999 FEW044 13/08 Q1011 NOSIG
  • 270250Z 32007KT 9999 FEW030 SCT046 13/09 Q1011 NOSIG
  • 270220Z 32008KT 9999 FEW042 13/09 Q1011 NOSIG
  • 270150Z 30008KT 9999 BKN040 13/11 Q1011 NOSIG
  • 270120Z 27006KT 7000 BKN042 14/12 Q1011 NOSIG

TAF TAF EBOS
Valide du 27 à 00h jusqu'au 28 à 06h UTC


262300Z 2700/2806 25015KT 3500 -RADZ SCT004 BKN007
BECMG 2700/2702 31007KT 9999 NSW FEW012 SCT040
BECMG 2716/2718 25013KT
TEMPO 2800/2806 4000 SHRA BKN014TCU
Pas de NOTAMs connus pour ce terrain.



MET'MAP, la Météo Aéronautique d'un coup d'oeil ! - Copyright ORBIFLY Décembre 2007 - Disclaimer

ORBIFLY MET'MAP TEAM :

Programmation & Développement : Alexandra Zaïnal
Conception & Développement : Baudouin d'Aumeries
Co-Programmation & Développement : Marc-Olivier Méhu
Soutien technique & logistique : Manuel Goepfert

Contact : metmap@orbifly.com




SOURCES & CREDITS :

   NOAA